Time;durP1;ratioP1;P1;durP2;ratioP2;P2;SDS_P1;SDS_P2;PMS_P1;PMS_P2;Temp;Humidity;BMP_temperature;BMP_pressure;BME280_temperature;BME280_humidity;BME280_pressure;Samples;Min_cycle;Max_cycle;Signal;HPM_P1;HPM_P2
2023/08/14 00:00:44;;;;;;;0.00;0.00;;;;;;;;;;5071660;28;20130;-76
2023/08/14 00:03:10;;;;;;;0.00;0.00;;;;;;;;;;5074251;28;20060;-76
2023/08/14 00:05:36;;;;;;;0.00;0.00;;;;;;;;;;5075178;28;20037;-75
2023/08/14 00:08:02;;;;;;;0.00;0.00;;;;;;;;;;5073974;28;20074;-76
2023/08/14 00:10:28;;;;;;;0.00;0.00;;;;;;;;;;5074981;28;20063;-76
2023/08/14 00:12:54;;;;;;;0.00;0.00;;;;;;;;;;5073889;28;20044;-77
2023/08/14 00:15:20;;;;;;;0.00;0.00;;;;;;;;;;5074377;28;20040;-76
2023/08/14 00:17:46;;;;;;;0.00;0.00;;;;;;;;;;5074983;28;20044;-77
2023/08/14 00:20:12;;;;;;;0.00;0.00;;;;;;;;;;5075046;28;20033;-76
2023/08/14 00:22:38;;;;;;;0.00;0.00;;;;;;;;;;5073606;28;20048;-77
2023/08/14 00:25:04;;;;;;;0.00;0.00;;;;;;;;;;5075027;28;20114;-76
2023/08/14 00:27:30;;;;;;;0.00;0.00;;;;;;;;;;5074872;28;20047;-76
2023/08/14 00:29:56;;;;;;;0.00;0.00;;;;;;;;;;5075056;28;20134;-76
2023/08/14 00:32:22;;;;;;;0.00;0.00;;;;;;;;;;5074816;28;20199;-76
2023/08/14 00:34:48;;;;;;;0.00;0.00;;;;;;;;;;5075048;28;20036;-76
2023/08/14 00:37:14;;;;;;;0.00;0.00;;;;;;;;;;5074889;28;20047;-77
2023/08/14 00:39:40;;;;;;;0.00;0.00;;;;;;;;;;5073648;28;20135;-76
2023/08/14 00:42:06;;;;;;;0.00;0.00;;;;;;;;;;5074585;28;20051;-76
2023/08/14 00:44:32;;;;;;;0.00;0.00;;;;;;;;;;5074920;28;20068;-76
2023/08/14 00:46:58;;;;;;;0.00;0.00;;;;;;;;;;5074439;28;20201;-77
2023/08/14 00:49:24;;;;;;;0.00;0.00;;;;;;;;;;5074682;28;20043;-76
2023/08/14 00:51:50;;;;;;;0.00;0.00;;;;;;;;;;5073193;28;20557;-76
2023/08/14 00:54:16;;;;;;;0.00;0.00;;;;;;;;;;5074781;28;20072;-76
2023/08/14 00:56:42;;;;;;;0.00;0.00;;;;;;;;;;5074359;28;20040;-76
2023/08/14 00:59:09;;;;;;;0.00;0.00;;;;;;;;;;5074574;28;20036;-76
2023/08/14 01:01:35;;;;;;;0.00;0.00;;;;;;;;;;5073044;28;20087;-76
2023/08/14 01:04:01;;;;;;;0.00;0.00;;;;;;;;;;5074445;28;20044;-77
2023/08/14 01:06:27;;;;;;;0.00;0.00;;;;;;;;;;5073417;28;20049;-76
2023/08/14 01:08:53;;;;;;;0.00;0.00;;;;;;;;;;5074985;28;20072;-76
2023/08/14 01:11:26;;;;;;;0.00;0.00;;;;;;;;;;5074082;28;20057;-76
2023/08/14 01:14:02;;;;;;;0.00;0.00;;;;;;;;;;5072316;28;20071;-77
2023/08/14 01:16:31;;;;;;;0.00;0.00;;;;;;;;;;5073006;28;20491;-76
2023/08/14 01:18:59;;;;;;;0.00;0.00;;;;;;;;;;5072700;28;20040;-76
2023/08/14 01:21:42;;;;;;;0.00;0.00;;;;;;;;;;5089868;28;20045;-76
2023/08/14 01:24:14;;;;;;;0.00;0.00;;;;;;;;;;5074122;28;20336;-77
2023/08/14 01:26:40;;;;;;;0.00;0.00;;;;;;;;;;5073837;28;20076;-78
2023/08/14 01:29:06;;;;;;;0.00;0.00;;;;;;;;;;5073960;28;20060;-76
2023/08/14 01:31:32;;;;;;;0.00;0.00;;;;;;;;;;5089641;28;20380;-76
2023/08/14 01:33:58;;;;;;;0.00;0.00;;;;;;;;;;5072326;28;20032;-76
2023/08/14 01:36:28;;;;;;;0.00;0.00;;;;;;;;;;5073809;28;20041;-76
2023/08/14 01:38:59;;;;;;;0.00;0.00;;;;;;;;;;5073558;28;20628;-76
2023/08/14 01:41:32;;;;;;;0.00;0.00;;;;;;;;;;5072313;28;20094;-77
2023/08/14 01:43:59;;;;;;;0.00;0.00;;;;;;;;;;5073541;28;20068;-77
2023/08/14 01:46:26;;;;;;;0.00;0.00;;;;;;;;;;5073594;28;20047;-77
2023/08/14 01:48:53;;;;;;;0.00;0.00;;;;;;;;;;5073467;28;20173;-76
2023/08/14 01:51:20;;;;;;;0.00;0.00;;;;;;;;;;5073542;28;20041;-77
2023/08/14 01:53:47;;;;;;;0.00;0.00;;;;;;;;;;5073148;28;20361;-76
2023/08/14 01:56:13;;;;;;;0.00;0.00;;;;;;;;;;5073387;28;20131;-77
2023/08/14 01:58:39;;;;;;;0.00;0.00;;;;;;;;;;5073270;28;20076;-76
2023/08/14 02:01:05;;;;;;;0.00;0.00;;;;;;;;;;5089008;28;20076;-77
2023/08/14 02:03:31;;;;;;;0.00;0.00;;;;;;;;;;5071721;28;20548;-77
2023/08/14 02:05:57;;;;;;;0.00;0.00;;;;;;;;;;5071904;28;20089;-76
2023/08/14 02:08:23;;;;;;;0.00;0.00;;;;;;;;;;5072998;28;20131;-76
2023/08/14 02:10:48;;;;;;;0.00;0.00;;;;;;;;;;5072718;28;20059;-76
2023/08/14 02:13:14;;;;;;;0.00;0.00;;;;;;;;;;5071486;28;20535;-76
2023/08/14 02:15:40;;;;;;;0.00;0.00;;;;;;;;;;5073063;28;20036;-76
2023/08/14 02:18:06;;;;;;;0.00;0.00;;;;;;;;;;5072662;28;20040;-76
2023/08/14 02:20:32;;;;;;;0.00;0.00;;;;;;;;;;5071462;28;20064;-77
2023/08/14 02:22:58;;;;;;;0.00;0.00;;;;;;;;;;5071382;28;20048;-77
2023/08/14 02:25:24;;;;;;;0.10;0.03;;;;;;;;;;5073056;28;20486;-77
2023/08/14 02:27:50;;;;;;;0.00;0.00;;;;;;;;;;5071292;28;20044;-77
2023/08/14 02:30:16;;;;;;;0.00;0.00;;;;;;;;;;5072772;28;20040;-77
2023/08/14 02:32:42;;;;;;;0.00;0.00;;;;;;;;;;5072574;28;20392;-77
2023/08/14 02:35:08;;;;;;;0.00;0.00;;;;;;;;;;5072864;28;20079;-76
2023/08/14 02:37:34;;;;;;;0.00;0.00;;;;;;;;;;5072554;28;20117;-77
2023/08/14 02:40:00;;;;;;;0.00;0.00;;;;;;;;;;5071383;28;20463;-76
2023/08/14 02:42:26;;;;;;;0.00;0.00;;;;;;;;;;5072493;28;20123;-77
2023/08/14 02:44:53;;;;;;;0.00;0.00;;;;;;;;;;5071354;28;20041;-77
2023/08/14 02:47:19;;;;;;;0.00;0.00;;;;;;;;;;5072519;28;20518;-76
2023/08/14 02:49:45;;;;;;;0.20;0.00;;;;;;;;;;5070943;28;20091;-77
2023/08/14 02:52:11;;;;;;;0.00;0.00;;;;;;;;;;5071102;28;20072;-77
2023/08/14 02:54:37;;;;;;;0.00;0.00;;;;;;;;;;5072499;28;20036;-76
2023/08/14 02:57:03;;;;;;;0.00;0.00;;;;;;;;;;5071330;28;20055;-76
2023/08/14 02:59:29;;;;;;;0.00;0.00;;;;;;;;;;5070844;28;20479;-76
2023/08/14 03:01:55;;;;;;;0.00;0.00;;;;;;;;;;5072588;28;20063;-77
2023/08/14 03:04:21;;;;;;;0.00;0.00;;;;;;;;;;5072420;28;20479;-76
2023/08/14 03:06:47;;;;;;;0.00;0.00;;;;;;;;;;5087871;28;20399;-77
2023/08/14 03:09:13;;;;;;;0.00;0.00;;;;;;;;;;5072064;28;20083;-76
2023/08/14 03:11:39;;;;;;;0.00;0.00;;;;;;;;;;5072287;28;20475;-76
2023/08/14 03:14:05;;;;;;;0.00;0.00;;;;;;;;;;5070717;28;20045;-76
2023/08/14 03:16:32;;;;;;;0.00;0.00;;;;;;;;;;5071113;28;20053;-76
2023/08/14 03:18:57;;;;;;;0.00;0.00;;;;;;;;;;5070620;28;20051;-76
2023/08/14 03:21:23;;;;;;;0.00;0.00;;;;;;;;;;5072207;28;20040;-76
2023/08/14 03:23:50;;;;;;;0.00;0.00;;;;;;;;;;5071999;28;20040;-76
2023/08/14 03:26:16;;;;;;;0.00;0.00;;;;;;;;;;5072205;28;20123;-76
2023/08/14 03:28:42;;;;;;;0.00;0.00;;;;;;;;;;5071840;28;20119;-76
2023/08/14 03:31:08;;;;;;;0.00;0.00;;;;;;;;;;5072211;28;20089;-76
2023/08/14 03:33:34;;;;;;;0.00;0.00;;;;;;;;;;5070502;28;20044;-76
2023/08/14 03:36:00;;;;;;;0.00;0.00;;;;;;;;;;5072514;28;20407;-76
2023/08/14 03:38:26;;;;;;;0.00;0.00;;;;;;;;;;5091575;28;20032;-76
2023/08/14 03:40:52;;;;;;;0.00;0.00;;;;;;;;;;5074863;28;20040;-76
2023/08/14 03:43:18;;;;;;;0.00;0.00;;;;;;;;;;5074329;28;20583;-76
2023/08/14 03:45:44;;;;;;;0.00;0.00;;;;;;;;;;5075843;28;20029;-76
2023/08/14 03:48:10;;;;;;;0.00;0.00;;;;;;;;;;5074174;28;20040;-76
2023/08/14 03:50:36;;;;;;;0.00;0.00;;;;;;;;;;5074234;28;20047;-76
2023/08/14 03:53:02;;;;;;;0.00;0.00;;;;;;;;;;5075512;28;20117;-76
2023/08/14 03:55:28;;;;;;;0.00;0.00;;;;;;;;;;5075434;28;20044;-76
2023/08/14 03:57:56;;;;;;;0.00;0.00;;;;;;;;;;5075647;28;20044;-76
2023/08/14 04:00:22;;;;;;;0.00;0.00;;;;;;;;;;5074261;28;20101;-76
2023/08/14 04:02:48;;;;;;;0.00;0.00;;;;;;;;;;5075397;28;20036;-76
2023/08/14 04:05:14;;;;;;;0.00;0.00;;;;;;;;;;5075111;28;20076;-76
2023/08/14 04:07:40;;;;;;;0.00;0.00;;;;;;;;;;5075170;28;20048;-76
2023/08/14 04:10:07;;;;;;;0.00;0.00;;;;;;;;;;5073784;28;20055;-76
2023/08/14 04:12:33;;;;;;;0.00;0.00;;;;;;;;;;5075442;28;20047;-76
2023/08/14 04:15:12;;;;;;;0.00;0.00;;;;;;;;;;5075163;28;20432;-76
2023/08/14 04:17:38;;;;;;;0.00;0.00;;;;;;;;;;5074192;28;20075;-76
2023/08/14 04:20:05;;;;;;;0.00;0.00;;;;;;;;;;5075049;28;20468;-79
2023/08/14 04:22:31;;;;;;;0.00;0.00;;;;;;;;;;5075291;28;20116;-76
2023/08/14 04:24:56;;;;;;;0.00;0.00;;;;;;;;;;5075019;28;20576;-76
2023/08/14 04:27:22;;;;;;;0.00;0.00;;;;;;;;;;5074971;28;20120;-77
2023/08/14 04:29:48;;;;;;;0.00;0.00;;;;;;;;;;5073667;28;20111;-76
2023/08/14 04:32:14;;;;;;;0.00;0.00;;;;;;;;;;5074050;28;20040;-76
2023/08/14 04:34:40;;;;;;;0.00;0.00;;;;;;;;;;5073365;28;20470;-76
2023/08/14 04:37:07;;;;;;;0.00;0.00;;;;;;;;;;5073838;28;20131;-76
2023/08/14 04:39:33;;;;;;;0.00;0.00;;;;;;;;;;5073293;28;20076;-76
2023/08/14 04:41:59;;;;;;;0.00;0.00;;;;;;;;;;5073750;28;20045;-76
2023/08/14 04:44:25;;;;;;;0.00;0.00;;;;;;;;;;5074604;28;20375;-76
2023/08/14 04:46:51;;;;;;;0.00;0.00;;;;;;;;;;5090275;28;20074;-76
2023/08/14 04:49:17;;;;;;;0.00;0.00;;;;;;;;;;5074528;28;20036;-76
2023/08/14 04:51:43;;;;;;;0.00;0.00;;;;;;;;;;5074819;28;20033;-76
2023/08/14 04:54:09;;;;;;;0.00;0.00;;;;;;;;;;5074411;28;20132;-76
2023/08/14 04:56:35;;;;;;;0.00;0.00;;;;;;;;;;5074667;28;20055;-76
2023/08/14 04:59:01;;;;;;;0.00;0.00;;;;;;;;;;5074359;28;20036;-78
2023/08/14 05:01:27;;;;;;;0.00;0.00;;;;;;;;;;5073333;28;20166;-78
2023/08/14 05:03:53;;;;;;;0.00;0.00;;;;;;;;;;5073161;28;20101;-78
2023/08/14 05:06:19;;;;;;;0.00;0.00;;;;;;;;;;5090150;28;20052;-77
2023/08/14 05:08:45;;;;;;;0.00;0.00;;;;;;;;;;5073158;28;20036;-77
2023/08/14 05:11:11;;;;;;;0.00;0.00;;;;;;;;;;5074008;28;20048;-78
2023/08/14 05:13:39;;;;;;;0.00;0.00;;;;;;;;;;5074451;28;20040;-78
2023/08/14 05:16:05;;;;;;;0.00;0.00;;;;;;;;;;5089557;28;20196;-78
2023/08/14 05:18:31;;;;;;;0.00;0.00;;;;;;;;;;5074198;28;20032;-78
2023/08/14 05:20:57;;;;;;;0.00;0.00;;;;;;;;;;5072736;28;20444;-78
2023/08/14 05:23:23;;;;;;;0.00;0.00;;;;;;;;;;5072816;28;20032;-78
2023/08/14 05:25:49;;;;;;;0.00;0.00;;;;;;;;;;5073920;28;20376;-78
2023/08/14 05:28:15;;;;;;;0.00;0.00;;;;;;;;;;5074121;28;20511;-78
2023/08/14 05:30:45;;;;;;;0.00;0.00;;;;;;;;;;5072408;28;20090;-78
2023/08/14 05:33:11;;;;;;;0.00;0.00;;;;;;;;;;5074052;28;20036;-78
2023/08/14 05:35:37;;;;;;;0.00;0.00;;;;;;;;;;5089608;28;20075;-78
2023/08/14 05:38:03;;;;;;;0.00;0.00;;;;;;;;;;5072831;28;20044;-78
2023/08/14 05:40:29;;;;;;;0.00;0.00;;;;;;;;;;5073820;28;20040;-78
2023/08/14 05:43:22;;;;;;;0.00;0.00;;;;;;;;;;5072951;28;20044;-78
2023/08/14 05:45:49;;;;;;;0.00;0.00;;;;;;;;;;5072730;28;20057;-77
2023/08/14 05:48:15;;;;;;;0.00;0.00;;;;;;;;;;5073862;28;20044;-77
2023/08/14 05:50:41;;;;;;;0.00;0.00;;;;;;;;;;5072418;28;20175;-80
2023/08/14 05:53:08;;;;;;;0.00;0.00;;;;;;;;;;5072328;28;20040;-78
2023/08/14 05:55:35;;;;;;;0.00;0.00;;;;;;;;;;5073242;28;20134;-77
2023/08/14 05:58:02;;;;;;;0.00;0.00;;;;;;;;;;5071601;28;20048;-78
2023/08/14 06:00:30;;;;;;;0.00;0.00;;;;;;;;;;5073186;28;20076;-78
2023/08/14 06:02:56;;;;;;;0.00;0.00;;;;;;;;;;5088995;28;20438;-78
2023/08/14 06:05:22;;;;;;;0.00;0.00;;;;;;;;;;5073273;28;20090;-78
2023/08/14 06:07:48;;;;;;;0.00;0.00;;;;;;;;;;5073387;28;20041;-78
2023/08/14 06:10:14;;;;;;;0.00;0.00;;;;;;;;;;5072674;28;20045;-78
2023/08/14 06:12:41;;;;;;;0.00;0.00;;;;;;;;;;5071590;28;20464;-78
2023/08/14 06:15:07;;;;;;;0.00;0.00;;;;;;;;;;5088713;28;20407;-78
2023/08/14 06:17:33;;;;;;;0.00;0.00;;;;;;;;;;5073079;28;20040;-78
2023/08/14 06:19:59;;;;;;;0.00;0.00;;;;;;;;;;5071449;28;20162;-78
2023/08/14 06:22:26;;;;;;;0.00;0.00;;;;;;;;;;5071672;28;20063;-79
2023/08/14 06:24:52;;;;;;;0.00;0.00;;;;;;;;;;5072827;28;20040;-78
2023/08/14 06:27:18;;;;;;;0.00;0.00;;;;;;;;;;5072909;28;20128;-79
2023/08/14 06:29:44;;;;;;;0.00;0.00;;;;;;;;;;5071428;28;20040;-79
2023/08/14 06:32:10;;;;;;;0.00;0.00;;;;;;;;;;5072975;28;20562;-78
2023/08/14 06:34:36;;;;;;;0.00;0.00;;;;;;;;;;5088397;28;20036;-78
2023/08/14 06:37:02;;;;;;;0.00;0.00;;;;;;;;;;5072635;28;20098;-78
2023/08/14 06:39:28;;;;;;;0.00;0.00;;;;;;;;;;5088185;28;20051;-78
2023/08/14 06:41:54;;;;;;;0.00;0.00;;;;;;;;;;5071367;28;20048;-78
2023/08/14 06:44:20;;;;;;;0.00;0.00;;;;;;;;;;5088292;28;20044;-78
2023/08/14 06:46:46;;;;;;;0.00;0.00;;;;;;;;;;5088008;28;20045;-78
2023/08/14 06:49:12;;;;;;;0.00;0.00;;;;;;;;;;5071166;28;20081;-81
2023/08/14 06:51:38;;;;;;;0.00;0.00;;;;;;;;;;5072390;28;20032;-79
2023/08/14 06:54:05;;;;;;;0.00;0.00;;;;;;;;;;5071269;28;20369;-80
2023/08/14 06:56:31;;;;;;;0.00;0.00;;;;;;;;;;5071154;28;20399;-80
2023/08/14 06:58:57;;;;;;;0.00;0.00;;;;;;;;;;5071336;28;20388;-80
2023/08/14 07:01:23;;;;;;;0.00;0.00;;;;;;;;;;5072242;28;20048;-80
2023/08/14 07:03:49;;;;;;;0.00;0.00;;;;;;;;;;5071203;28;20044;-78
2023/08/14 07:06:15;;;;;;;0.00;0.00;;;;;;;;;;5072082;28;20128;-78
2023/08/14 07:08:42;;;;;;;0.00;0.00;;;;;;;;;;5072113;28;20032;-78
2023/08/14 07:11:08;;;;;;;0.00;0.00;;;;;;;;;;5073936;28;20474;-78
2023/08/14 07:13:34;;;;;;;0.00;0.00;;;;;;;;;;5075421;28;20080;-79
2023/08/14 07:16:00;;;;;;;0.00;0.00;;;;;;;;;;5076294;28;20487;-77
2023/08/14 07:18:26;;;;;;;0.00;0.00;;;;;;;;;;5076381;28;20036;-78
2023/08/14 07:20:52;;;;;;;0.00;0.00;;;;;;;;;;5074749;28;20037;-79
2023/08/14 07:23:19;;;;;;;0.00;0.00;;;;;;;;;;5076360;28;20159;-78
2023/08/14 07:25:45;;;;;;;0.00;0.00;;;;;;;;;;5076200;28;20105;-79
2023/08/14 07:28:11;;;;;;;0.00;0.00;;;;;;;;;;5075744;28;20400;-78
2023/08/14 07:30:38;;;;;;;0.00;0.00;;;;;;;;;;5075841;28;20039;-79
2023/08/14 07:33:04;;;;;;;0.00;0.00;;;;;;;;;;5091599;28;20037;-78
2023/08/14 07:35:31;;;;;;;0.00;0.00;;;;;;;;;;5074489;28;20044;-78
2023/08/14 07:37:58;;;;;;;0.00;0.00;;;;;;;;;;5074868;28;20059;-79
2023/08/14 07:40:24;;;;;;;0.00;0.00;;;;;;;;;;5075931;28;20044;-83
2023/08/14 07:42:50;;;;;;;0.00;0.00;;;;;;;;;;5075913;28;20125;-79
2023/08/14 07:45:16;;;;;;;0.00;0.00;;;;;;;;;;5074392;28;20044;-79
2023/08/14 07:47:42;;;;;;;0.00;0.00;;;;;;;;;;5075555;28;20047;-79
2023/08/14 07:50:08;;;;;;;0.00;0.00;;;;;;;;;;5091276;28;20041;-78
2023/08/14 07:52:34;;;;;;;0.00;0.00;;;;;;;;;;5074009;28;20067;-79
2023/08/14 07:55:01;;;;;;;0.00;0.00;;;;;;;;;;5075748;28;20509;-81
2023/08/14 07:57:27;;;;;;;0.00;0.00;;;;;;;;;;5074237;28;20066;-80
2023/08/14 07:59:54;;;;;;;0.00;0.00;;;;;;;;;;5075349;28;20380;-80
2023/08/14 08:02:20;;;;;;;0.00;0.00;;;;;;;;;;5075135;28;20045;-80
2023/08/14 08:04:46;;;;;;;0.00;0.00;;;;;;;;;;5075494;28;20044;-80
2023/08/14 08:07:12;;;;;;;0.00;0.00;;;;;;;;;;5075238;28;20097;-80
2023/08/14 08:09:38;;;;;;;0.00;0.00;;;;;;;;;;5075265;28;20053;-79
2023/08/14 08:12:06;;;;;;;0.00;0.00;;;;;;;;;;5073994;28;20127;-80
2023/08/14 08:14:33;;;;;;;0.00;0.00;;;;;;;;;;5074035;28;20051;-80
2023/08/14 08:16:59;;;;;;;0.00;0.00;;;;;;;;;;5073946;28;20505;-80
2023/08/14 08:19:25;;;;;;;0.00;0.00;;;;;;;;;;5075085;28;20044;-79
2023/08/14 08:21:51;;;;;;;0.00;0.00;;;;;;;;;;5073329;28;20044;-79
2023/08/14 08:24:17;;;;;;;0.00;0.00;;;;;;;;;;5073660;28;20049;-80
2023/08/14 08:26:43;;;;;;;0.00;0.00;;;;;;;;;;5073424;28;20540;-80
2023/08/14 08:29:09;;;;;;;0.00;0.00;;;;;;;;;;5074924;28;20033;-80
2023/08/14 08:31:35;;;;;;;0.00;0.00;;;;;;;;;;5073368;28;20134;-80
2023/08/14 08:34:01;;;;;;;0.00;0.00;;;;;;;;;;5073513;28;20040;-79
2023/08/14 08:36:27;;;;;;;0.00;0.00;;;;;;;;;;5073541;28;20052;-79
2023/08/14 08:38:53;;;;;;;0.00;0.00;;;;;;;;;;5075108;28;20552;-79
2023/08/14 08:41:40;;;;;;;0.00;0.00;;;;;;;;;;5074630;28;20044;-80
2023/08/14 08:44:12;;;;;;;0.00;0.00;;;;;;;;;;5074563;28;20060;-80
2023/08/14 08:46:39;;;;;;;0.00;0.00;;;;;;;;;;5074280;28;20470;-79
2023/08/14 08:49:06;;;;;;;0.00;0.00;;;;;;;;;;5074620;28;20471;-79
2023/08/14 08:51:33;;;;;;;0.00;0.00;;;;;;;;;;5073039;28;20067;-80
2023/08/14 08:53:59;;;;;;;0.00;0.00;;;;;;;;;;5090343;28;20044;-80
2023/08/14 08:56:26;;;;;;;0.00;0.00;;;;;;;;;;5074378;28;20055;-79
2023/08/14 08:58:52;;;;;;;0.00;0.00;;;;;;;;;;5074496;28;20051;-79
2023/08/14 09:01:19;;;;;;;0.00;0.00;;;;;;;;;;5073001;28;20080;-80
2023/08/14 09:03:46;;;;;;;0.00;0.00;;;;;;;;;;5072924;28;20048;-79
2023/08/14 09:06:12;;;;;;;0.00;0.00;;;;;;;;;;5074053;28;20072;-80
2023/08/14 09:08:38;;;;;;;0.00;0.00;;;;;;;;;;5074422;28;20094;-79
2023/08/14 09:11:04;;;;;;;0.00;0.00;;;;;;;;;;5072551;28;20053;-79
2023/08/14 09:13:30;;;;;;;0.00;0.00;;;;;;;;;;5073980;28;20060;-79
2023/08/14 09:15:56;;;;;;;0.00;0.00;;;;;;;;;;5074163;28;20100;-80
2023/08/14 09:18:22;;;;;;;0.00;0.00;;;;;;;;;;5073740;28;20106;-80
2023/08/14 09:20:48;;;;;;;0.00;0.00;;;;;;;;;;5072905;28;20131;-79
2023/08/14 09:23:14;;;;;;;0.00;0.00;;;;;;;;;;5072468;28;20475;-79
2023/08/14 09:25:41;;;;;;;0.00;0.00;;;;;;;;;;5072645;28;20125;-79
2023/08/14 09:28:11;;;;;;;0.00;0.00;;;;;;;;;;5073409;28;20120;-80
2023/08/14 09:30:37;;;;;;;0.00;0.00;;;;;;;;;;5073719;28;20036;-79
2023/08/14 09:33:07;;;;;;;0.00;0.00;;;;;;;;;;5071231;28;20104;-79
2023/08/14 09:35:33;;;;;;;0.00;0.00;;;;;;;;;;5073816;28;20068;-79
2023/08/14 09:37:59;;;;;;;0.00;0.00;;;;;;;;;;5072487;28;20442;-79
2023/08/14 09:40:25;;;;;;;0.00;0.00;;;;;;;;;;5073505;28;20036;-79
2023/08/14 09:42:51;;;;;;;0.00;0.00;;;;;;;;;;5072127;28;20410;-80
2023/08/14 09:45:18;;;;;;;0.00;0.00;;;;;;;;;;5072210;28;20048;-79
2023/08/14 09:47:44;;;;;;;0.00;0.00;;;;;;;;;;5073396;28;20048;-79
2023/08/14 09:50:12;;;;;;;0.00;0.00;;;;;;;;;;5073569;28;20119;-79
2023/08/14 09:52:39;;;;;;;0.00;0.00;;;;;;;;;;5073245;28;20048;-79
2023/08/14 09:55:05;;;;;;;0.00;0.00;;;;;;;;;;5072188;28;20503;-80
2023/08/14 09:57:31;;;;;;;0.00;0.00;;;;;;;;;;5071886;28;20044;-79
2023/08/14 09:59:57;;;;;;;0.00;0.00;;;;;;;;;;5073317;28;20040;-79
2023/08/14 10:02:24;;;;;;;0.00;0.00;;;;;;;;;;5071731;28;20051;-79
2023/08/14 10:04:51;;;;;;;0.00;0.00;;;;;;;;;;5073385;28;20044;-79
2023/08/14 10:07:17;;;;;;;0.00;0.00;;;;;;;;;;5072892;28;20083;-79
2023/08/14 10:09:50;;;;;;;0.00;0.00;;;;;;;;;;5072984;28;20476;-80
2023/08/14 10:12:17;;;;;;;0.00;0.00;;;;;;;;;;5073177;28;20369;-80
2023/08/14 10:14:48;;;;;;;0.00;0.00;;;;;;;;;;5072965;28;20365;-80
2023/08/14 10:17:20;;;;;;;0.00;0.00;;;;;;;;;;5072839;28;20507;-79
2023/08/14 10:19:48;;;;;;;0.00;0.00;;;;;;;;;;5088930;28;20203;-79
2023/08/14 10:22:14;;;;;;;0.00;0.00;;;;;;;;;;5072631;28;20486;-82
2023/08/14 10:24:41;;;;;;;0.00;0.00;;;;;;;;;;5071921;28;20079;-79
2023/08/14 10:27:08;;;;;;;0.00;0.00;;;;;;;;;;5088384;28;20041;-79
2023/08/14 10:29:35;;;;;;;0.00;0.00;;;;;;;;;;5073286;28;20043;-79
2023/08/14 10:32:01;;;;;;;0.00;0.00;;;;;;;;;;5072224;28;20119;-80
2023/08/14 10:34:30;;;;;;;0.00;0.00;;;;;;;;;;5073224;28;20040;-80
2023/08/14 10:36:56;;;;;;;0.00;0.00;;;;;;;;;;5088398;28;20036;-79
2023/08/14 10:39:32;;;;;;;0.00;0.00;;;;;;;;;;5072669;28;20051;-79
2023/08/14 10:41:59;;;;;;;0.00;0.00;;;;;;;;;;5072889;28;20094;-79
2023/08/14 10:44:31;;;;;;;0.00;0.00;;;;;;;;;;5070968;28;20046;-80
2023/08/14 10:47:04;;;;;;;0.00;0.00;;;;;;;;;;5072690;28;20094;-80
2023/08/14 10:49:30;;;;;;;0.00;0.00;;;;;;;;;;5087687;28;20094;-79
2023/08/14 10:52:01;;;;;;;0.00;0.00;;;;;;;;;;5072474;28;20032;-79
2023/08/14 10:54:36;;;;;;;0.00;0.00;;;;;;;;;;5071066;28;20072;-80
2023/08/14 10:57:07;;;;;;;0.00;0.00;;;;;;;;;;5072755;28;20098;-80
2023/08/14 10:59:34;;;;;;;0.00;0.00;;;;;;;;;;5070960;28;20072;-79
2023/08/14 11:02:13;;;;;;;0.00;0.00;;;;;;;;;;5072552;28;20057;-80
2023/08/14 11:04:58;;;;;;;0.00;0.00;;;;;;;;;;5072376;28;20093;-80
2023/08/14 11:07:31;;;;;;;0.00;0.00;;;;;;;;;;5070918;28;20124;-80
2023/08/14 11:09:57;;;;;;;0.00;0.00;;;;;;;;;;5072166;28;20048;-79
2023/08/14 11:12:24;;;;;;;0.00;0.00;;;;;;;;;;5072119;28;20120;-79
2023/08/14 11:14:50;;;;;;;0.00;0.00;;;;;;;;;;5070632;28;20044;-80
2023/08/14 11:17:16;;;;;;;0.00;0.00;;;;;;;;;;5072382;28;20044;-80
2023/08/14 11:19:42;;;;;;;0.00;0.00;;;;;;;;;;5073122;28;20052;-80
2023/08/14 11:22:08;;;;;;;0.00;0.00;;;;;;;;;;5072498;28;20045;-79
2023/08/14 11:24:36;;;;;;;0.00;0.00;;;;;;;;;;5074750;28;20181;-80
2023/08/14 11:27:03;;;;;;;0.00;0.00;;;;;;;;;;5072909;28;20049;-80
2023/08/14 11:29:29;;;;;;;0.00;0.00;;;;;;;;;;5073018;28;20396;-80
2023/08/14 11:31:55;;;;;;;0.00;0.00;;;;;;;;;;5072571;28;20168;-79
2023/08/14 11:34:21;;;;;;;0.00;0.00;;;;;;;;;;5073124;28;20202;-81
2023/08/14 11:36:57;;;;;;;0.00;0.00;;;;;;;;;;5072098;28;20109;-79
2023/08/14 11:39:23;;;;;;;0.00;0.00;;;;;;;;;;5071657;28;20071;-80
2023/08/14 11:41:49;;;;;;;0.00;0.00;;;;;;;;;;5071810;28;20044;-78
2023/08/14 11:44:15;;;;;;;0.00;0.00;;;;;;;;;;5070344;28;20109;-79
2023/08/14 11:46:41;;;;;;;0.00;0.00;;;;;;;;;;5072105;28;20435;-79
2023/08/14 11:49:07;;;;;;;0.00;0.00;;;;;;;;;;5070424;28;20091;-82
2023/08/14 11:51:33;;;;;;;0.00;0.00;;;;;;;;;;5071943;28;20047;-80
2023/08/14 11:54:00;;;;;;;0.00;0.00;;;;;;;;;;5070613;28;20036;-80
2023/08/14 11:56:26;;;;;;;0.00;0.00;;;;;;;;;;5071386;28;20063;-80
2023/08/14 11:58:52;;;;;;;0.00;0.00;;;;;;;;;;5075243;28;20494;-80
2023/08/14 12:01:19;;;;;;;0.00;0.00;;;;;;;;;;5074123;28;20124;-80
2023/08/14 12:03:46;;;;;;;0.00;0.00;;;;;;;;;;5074401;28;20052;-80
2023/08/14 12:06:12;;;;;;;0.00;0.00;;;;;;;;;;5073993;28;20040;-79
2023/08/14 12:08:42;;;;;;;0.00;0.00;;;;;;;;;;5074126;28;20072;-80
2023/08/14 12:11:08;;;;;;;0.00;0.00;;;;;;;;;;5075213;28;20399;-82
2023/08/14 12:13:34;;;;;;;0.00;0.00;;;;;;;;;;5074344;28;20056;-80
2023/08/14 12:16:07;;;;;;;0.00;0.00;;;;;;;;;;5073839;28;20080;-80
2023/08/14 12:18:33;;;;;;;0.00;0.00;;;;;;;;;;5074281;28;20048;-80
2023/08/14 12:20:59;;;;;;;0.00;0.00;;;;;;;;;;5074925;28;20400;-80
2023/08/14 12:23:25;;;;;;;0.00;0.00;;;;;;;;;;5073818;28;20040;-80
2023/08/14 12:25:52;;;;;;;0.00;0.00;;;;;;;;;;5073533;28;20042;-80
2023/08/14 12:28:18;;;;;;;0.00;0.00;;;;;;;;;;5075114;28;20091;-81
2023/08/14 12:30:49;;;;;;;0.00;0.00;;;;;;;;;;5074843;28;20033;-80
2023/08/14 12:33:15;;;;;;;0.00;0.00;;;;;;;;;;5090526;28;20040;-80
2023/08/14 12:35:41;;;;;;;0.00;0.00;;;;;;;;;;5075102;28;20064;-80
2023/08/14 12:38:07;;;;;;;0.00;0.00;;;;;;;;;;5073734;28;20101;-80
2023/08/14 12:40:34;;;;;;;0.00;0.00;;;;;;;;;;5073118;28;20535;-80
2023/08/14 12:43:00;;;;;;;0.00;0.00;;;;;;;;;;5074739;28;20029;-80
2023/08/14 12:45:26;;;;;;;0.00;0.00;;;;;;;;;;5074480;28;20041;-80
2023/08/14 12:47:52;;;;;;;0.00;0.00;;;;;;;;;;5074529;28;20090;-80
2023/08/14 12:50:18;;;;;;;0.00;0.00;;;;;;;;;;5074395;28;20120;-80
2023/08/14 12:52:43;;;;;;;0.00;0.00;;;;;;;;;;5073334;28;20041;-81
2023/08/14 12:55:14;;;;;;;0.00;0.00;;;;;;;;;;5074522;28;20082;-81
2023/08/14 12:57:39;;;;;;;0.00;0.00;;;;;;;;;;5073548;28;20040;-81
2023/08/14 13:00:06;;;;;;;0.00;0.00;;;;;;;;;;5074212;28;20044;-81
2023/08/14 13:02:32;;;;;;;0.00;0.00;;;;;;;;;;5074535;28;20040;-81
2023/08/14 13:04:58;;;;;;;0.00;0.00;;;;;;;;;;5074321;28;20043;-80
2023/08/14 13:07:24;;;;;;;0.00;0.00;;;;;;;;;;5089941;28;20048;-81
2023/08/14 13:09:50;;;;;;;0.00;0.00;;;;;;;;;;5074081;28;20090;-81
2023/08/14 13:12:16;;;;;;;0.00;0.00;;;;;;;;;;5074195;28;20326;-81
2023/08/14 13:14:42;;;;;;;0.00;0.00;;;;;;;;;;5074129;28;20028;-80
2023/08/14 13:17:08;;;;;;;0.00;0.00;;;;;;;;;;5073894;28;20403;-80
2023/08/14 13:19:34;;;;;;;0.00;0.00;;;;;;;;;;5074021;28;20044;-80
2023/08/14 13:21:59;;;;;;;0.00;0.00;;;;;;;;;;5074046;28;20372;-81
2023/08/14 13:24:25;;;;;;;0.00;0.00;;;;;;;;;;5072795;28;20052;-80
2023/08/14 13:26:53;;;;;;;0.00;0.00;;;;;;;;;;5072757;28;20080;-81
2023/08/14 13:29:19;;;;;;;0.00;0.00;;;;;;;;;;5074070;28;20059;-81
2023/08/14 13:31:46;;;;;;;0.00;0.00;;;;;;;;;;5072252;28;20479;-81
2023/08/14 13:34:12;;;;;;;0.00;0.00;;;;;;;;;;5074040;28;20044;-81
2023/08/14 13:36:39;;;;;;;0.00;0.00;;;;;;;;;;5072584;28;20049;-81
2023/08/14 13:39:07;;;;;;;0.00;0.00;;;;;;;;;;5072331;28;20048;-81
2023/08/14 13:41:33;;;;;;;0.00;0.00;;;;;;;;;;5072106;28;20048;-80
2023/08/14 13:43:59;;;;;;;0.00;0.00;;;;;;;;;;5072317;28;20488;-80
2023/08/14 13:46:25;;;;;;;0.00;0.00;;;;;;;;;;5073284;28;20108;-80
2023/08/14 13:48:51;;;;;;;0.00;0.00;;;;;;;;;;5073714;28;20402;-81
2023/08/14 13:51:17;;;;;;;0.00;0.00;;;;;;;;;;5072475;28;20116;-81
2023/08/14 13:53:43;;;;;;;0.00;0.00;;;;;;;;;;5073425;28;20455;-81
2023/08/14 13:56:09;;;;;;;0.00;0.00;;;;;;;;;;5073222;28;20116;-80
2023/08/14 13:58:35;;;;;;;0.00;0.00;;;;;;;;;;5072145;28;20119;-81
2023/08/14 14:01:01;;;;;;;0.00;0.00;;;;;;;;;;5071736;28;20048;-81
2023/08/14 14:03:27;;;;;;;0.00;0.00;;;;;;;;;;5072178;28;20094;-80
2023/08/14 14:05:53;;;;;;;0.00;0.00;;;;;;;;;;5071890;28;20652;-81
2023/08/14 14:08:19;;;;;;;0.00;0.00;;;;;;;;;;5073291;28;20386;-81
2023/08/14 14:10:46;;;;;;;0.00;0.00;;;;;;;;;;5072556;28;20059;-81
2023/08/14 14:13:12;;;;;;;0.00;0.00;;;;;;;;;;5073304;28;20045;-81
2023/08/14 14:15:38;;;;;;;0.00;0.00;;;;;;;;;;5073028;28;20102;-81
2023/08/14 14:18:04;;;;;;;0.00;0.00;;;;;;;;;;5071562;28;20585;-81
2023/08/14 14:20:30;;;;;;;0.00;0.00;;;;;;;;;;5071280;28;20048;-81
2023/08/14 14:22:56;;;;;;;0.00;0.00;;;;;;;;;;5073117;28;20411;-80
2023/08/14 14:25:22;;;;;;;0.00;0.00;;;;;;;;;;5073300;28;20173;-81
2023/08/14 14:27:48;;;;;;;0.00;0.00;;;;;;;;;;5071458;28;20052;-80
2023/08/14 14:30:14;;;;;;;0.00;0.00;;;;;;;;;;5073044;28;20119;-81
2023/08/14 14:32:40;;;;;;;0.00;0.00;;;;;;;;;;5071552;28;20037;-81
2023/08/14 14:35:07;;;;;;;0.00;0.00;;;;;;;;;;5071600;28;20047;-81
2023/08/14 14:37:33;;;;;;;0.00;0.00;;;;;;;;;;5088590;28;20043;-81
2023/08/14 14:39:59;;;;;;;0.00;0.00;;;;;;;;;;5072947;28;20044;-81